createdAt,value
2022-11-17T00:01:38.836Z,12.31
2022-11-17T00:04:07.034Z,12.32
2022-11-17T00:06:35.965Z,12.02
2022-11-17T00:09:04.745Z,12.21
2022-11-17T00:11:52.954Z,11.99
2022-11-17T00:14:33.006Z,11.79
2022-11-17T00:17:02.225Z,11.75
2022-11-17T00:19:48.623Z,11.96
2022-11-17T00:22:17.416Z,11.72
2022-11-17T00:24:45.426Z,11.65
2022-11-17T00:27:13.755Z,11.53
2022-11-17T00:29:41.666Z,11.69
2022-11-17T00:32:33.459Z,11.81
2022-11-17T00:35:02.196Z,11.79
2022-11-17T00:37:35.156Z,12.17
2022-11-17T00:40:04.940Z,11.94
2022-11-17T00:42:33.190Z,12.19
2022-11-17T00:45:01.544Z,11.94
2022-11-17T00:47:30.365Z,11.93
2022-11-17T00:49:58.274Z,11.78
2022-11-17T00:52:26.606Z,12.21
2022-11-17T00:54:54.505Z,12.39
2022-11-17T00:57:22.846Z,12.32
2022-11-17T00:59:50.815Z,12.51
2022-11-17T01:02:20.145Z,12.49
2022-11-17T01:04:48.187Z,12.38
2022-11-17T01:07:16.527Z,12.38
2022-11-17T01:09:44.506Z,12.33
2022-11-17T01:12:12.767Z,12.44
2022-11-17T01:14:40.779Z,12.49
2022-11-17T01:17:09.866Z,12.41
2022-11-17T01:19:37.796Z,12.36
2022-11-17T01:22:07.015Z,12.34
2022-11-17T01:24:35.005Z,12.41
2022-11-17T01:27:03.505Z,12.51
2022-11-17T01:29:31.506Z,12.48
2022-11-17T01:32:00.975Z,12.27
2022-11-17T01:34:28.927Z,12.30
2022-11-17T01:37:32.348Z,12.43
2022-11-17T01:40:00.755Z,12.15
2022-11-17T01:42:29.717Z,12.02
2022-11-17T01:45:01.907Z,12.07
2022-11-17T01:47:47.986Z,11.98
2022-11-17T01:50:34.524Z,11.80
2022-11-17T01:53:08.899Z,11.47
2022-11-17T01:55:58.518Z,11.76
2022-11-17T01:58:38.723Z,12.02
2022-11-17T02:01:07.086Z,12.06
2022-11-17T02:03:37.346Z,11.94
2022-11-17T02:06:09.216Z,11.77
2022-11-17T02:08:41.420Z,11.70
2022-11-17T02:11:14.654Z,11.71
2022-11-17T02:13:42.954Z,11.79
2022-11-17T02:16:16.155Z,11.82
2022-11-17T02:18:46.253Z,11.70
2022-11-17T02:21:44.814Z,11.67
2022-11-17T02:24:27.505Z,11.48
2022-11-17T02:27:32.934Z,11.46
2022-11-17T02:30:07.783Z,10.99
2022-11-17T02:32:46.164Z,11.30
2022-11-17T02:35:28.084Z,11.14
2022-11-17T02:38:02.464Z,11.22
2022-11-17T02:40:48.815Z,11.35
2022-11-17T02:43:39.103Z,11.26
2022-11-17T02:46:23.703Z,11.26
2022-11-17T02:49:06.024Z,11.26
2022-11-17T02:51:37.393Z,11.12
2022-11-17T02:54:06.233Z,11.07
2022-11-17T02:56:34.473Z,11.19
2022-11-17T02:59:05.383Z,11.14
2022-11-17T03:01:36.241Z,11.01
2022-11-17T03:04:26.163Z,11.11
2022-11-17T03:07:06.683Z,11.04
2022-11-17T03:09:45.554Z,10.93
2022-11-17T03:12:23.873Z,10.99
2022-11-17T03:14:57.372Z,10.98
2022-11-17T03:17:48.304Z,11.06
2022-11-17T03:20:33.843Z,11.18
2022-11-17T03:23:17.944Z,11.28
2022-11-17T03:25:51.982Z,11.22
2022-11-17T03:28:24.782Z,11.36
2022-11-17T03:30:54.635Z,11.67
2022-11-17T03:33:26.232Z,11.77
2022-11-17T03:36:13.912Z,11.63
2022-11-17T03:38:53.963Z,11.47
2022-11-17T03:41:23.954Z,11.56
2022-11-17T03:43:54.152Z,11.57
2022-11-17T03:46:24.585Z,11.47
2022-11-17T03:49:04.541Z,11.39
2022-11-17T03:51:33.764Z,11.32
2022-11-17T03:54:03.174Z,11.37
2022-11-17T03:56:55.881Z,11.51
2022-11-17T03:59:44.017Z,11.24
2022-11-17T04:02:18.702Z,11.05
2022-11-17T04:05:05.685Z,11.13
2022-11-17T04:07:40.805Z,11.08
2022-11-17T04:10:19.292Z,11.15
2022-11-17T04:13:07.532Z,11.26
2022-11-17T04:15:54.311Z,10.95
2022-11-17T04:18:23.493Z,10.70
2022-11-17T04:20:54.536Z,10.70
2022-11-17T04:23:24.312Z,10.72
2022-11-17T04:26:15.514Z,10.35
2022-11-17T04:28:47.567Z,10.26
2022-11-17T04:31:24.646Z,10.20
2022-11-17T04:33:55.391Z,9.89
2022-11-17T04:36:33.551Z,9.95
2022-11-17T04:39:01.671Z,9.89
2022-11-17T04:41:48.982Z,10.50
2022-11-17T04:44:18.223Z,10.58
2022-11-17T04:46:47.260Z,10.20
2022-11-17T04:49:17.286Z,10.11
2022-11-17T04:51:46.668Z,10.05
2022-11-17T04:54:17.689Z,10.36
2022-11-17T04:56:48.518Z,10.60
2022-11-17T04:59:16.619Z,10.66
2022-11-17T05:01:45.770Z,10.82
2022-11-17T05:04:37.479Z,11.08
2022-11-17T05:07:08.448Z,11.32
2022-11-17T05:09:36.748Z,11.55
2022-11-17T05:12:23.698Z,11.51
2022-11-17T05:14:52.681Z,11.79
2022-11-17T05:17:22.453Z,11.62
2022-11-17T05:19:50.469Z,11.43
2022-11-17T05:22:41.410Z,11.65
2022-11-17T05:25:10.668Z,11.65
2022-11-17T05:27:38.909Z,11.28
2022-11-17T05:30:08.556Z,11.56
2022-11-17T05:32:37.790Z,11.62
2022-11-17T05:35:06.188Z,11.52
2022-11-17T05:37:34.466Z,11.61
2022-11-17T05:40:02.480Z,11.55
2022-11-17T05:42:30.815Z,11.69
2022-11-17T05:44:58.779Z,11.60
2022-11-17T05:47:28.266Z,11.45
2022-11-17T05:49:56.067Z,11.45
2022-11-17T05:52:24.256Z,11.44
2022-11-17T05:54:52.997Z,11.46
2022-11-17T05:57:27.938Z,11.32
2022-11-17T06:00:01.173Z,11.34
2022-11-17T06:02:38.906Z,11.39
2022-11-17T06:05:08.676Z,11.35
2022-11-17T06:07:38.990Z,11.46
2022-11-17T06:10:07.360Z,11.73
2022-11-17T06:12:35.676Z,11.73
2022-11-17T06:15:03.907Z,11.85
2022-11-17T06:17:37.249Z,11.72
2022-11-17T06:20:35.796Z,11.71
2022-11-17T06:23:07.716Z,11.63
2022-11-17T06:25:37.310Z,11.70
2022-11-17T06:28:11.011Z,11.64
2022-11-17T06:30:40.167Z,11.60
2022-11-17T06:33:12.280Z,11.78
2022-11-17T06:35:42.916Z,11.39
2022-11-17T06:38:11.099Z,11.41
2022-11-17T06:40:39.439Z,11.44
2022-11-17T06:43:09.847Z,11.61
2022-11-17T06:45:41.034Z,11.71
2022-11-17T06:48:11.702Z,11.60
2022-11-17T06:50:40.157Z,11.25
2022-11-17T06:53:10.907Z,11.19
2022-11-17T06:55:39.119Z,11.09
2022-11-17T06:58:11.748Z,11.27
2022-11-17T07:00:39.967Z,11.37
2022-11-17T07:03:11.503Z,10.89
2022-11-17T07:05:40.376Z,10.70
2022-11-17T07:08:09.848Z,10.60
2022-11-17T07:10:39.205Z,10.93
2022-11-17T07:13:07.246Z,11.10
2022-11-17T07:15:35.618Z,11.23
2022-11-17T07:18:03.567Z,10.79
2022-11-17T07:20:31.860Z,10.92
2022-11-17T07:23:00.527Z,11.06
2022-11-17T07:25:28.794Z,11.00
2022-11-17T07:28:01.085Z,10.67
2022-11-17T07:30:29.765Z,11.19
2022-11-17T07:33:03.847Z,11.23
2022-11-17T07:35:32.397Z,11.24
2022-11-17T07:38:01.857Z,11.26
2022-11-17T07:40:30.279Z,11.21
2022-11-17T07:42:58.183Z,11.25
2022-11-17T07:45:31.927Z,11.24
2022-11-17T07:48:02.605Z,11.09
2022-11-17T07:50:31.545Z,11.29
2022-11-17T07:52:59.641Z,11.58
2022-11-17T07:55:27.955Z,11.72
2022-11-17T07:58:01.145Z,11.83
2022-11-17T08:00:31.390Z,11.99
2022-11-17T08:03:05.214Z,12.26
2022-11-17T08:05:41.542Z,12.24
2022-11-17T08:08:14.836Z,12.30
2022-11-17T08:10:44.177Z,12.31
2022-11-17T08:13:14.318Z,12.51
2022-11-17T08:15:42.667Z,12.41
2022-11-17T08:18:10.592Z,12.45
2022-11-17T08:20:39.192Z,12.65
2022-11-17T08:23:07.261Z,12.58
2022-11-17T08:25:35.514Z,12.80
2022-11-17T08:28:03.624Z,12.75
2022-11-17T08:30:35.551Z,12.91
2022-11-17T08:33:03.578Z,12.87
2022-11-17T08:35:37.273Z,13.14
2022-11-17T08:38:06.002Z,13.04
2022-11-17T08:40:34.407Z,13.10
2022-11-17T08:43:02.344Z,13.41
2022-11-17T08:45:30.811Z,13.26
2022-11-17T08:47:59.183Z,13.33
2022-11-17T08:50:28.129Z,13.34
2022-11-17T08:52:56.204Z,13.70
2022-11-17T08:55:26.650Z,14.13
2022-11-17T08:57:54.593Z,14.78
2022-11-17T09:00:22.986Z,14.71
2022-11-17T09:02:50.936Z,14.76
2022-11-17T09:05:19.284Z,14.85
2022-11-17T09:07:47.428Z,15.41
2022-11-17T09:10:16.623Z,15.20
2022-11-17T09:12:44.552Z,15.39
2022-11-17T09:15:12.763Z,15.55
2022-11-17T09:17:43.895Z,16.42
2022-11-17T09:20:12.714Z,16.65
2022-11-17T09:22:40.883Z,16.52
2022-11-17T09:25:13.315Z,15.87
2022-11-17T09:27:41.675Z,15.28
2022-11-17T09:30:10.962Z,15.49
2022-11-17T09:32:38.822Z,14.25
2022-11-17T09:35:09.604Z,13.94
2022-11-17T09:37:38.073Z,13.48
2022-11-17T09:40:07.664Z,12.88
2022-11-17T09:42:40.301Z,12.65
2022-11-17T09:45:21.224Z,12.85
2022-11-17T09:48:33.680Z,12.64
2022-11-17T09:50:56.523Z,12.50
2022-11-17T09:53:31.564Z,12.49
2022-11-17T09:56:07.632Z,12.83
2022-11-17T09:58:50.124Z,12.70
2022-11-17T10:01:20.600Z,12.59
2022-11-17T10:03:51.030Z,13.18
2022-11-17T10:06:32.125Z,13.43
2022-11-17T10:09:16.403Z,12.75
2022-11-17T10:11:47.983Z,13.27
2022-11-17T10:14:19.413Z,13.16
2022-11-17T10:16:54.975Z,13.42
2022-11-17T10:19:26.076Z,13.37
2022-11-17T10:22:03.249Z,13.71
2022-11-17T10:24:49.023Z,13.95
2022-11-17T10:27:26.825Z,13.68
2022-11-17T10:30:00.526Z,14.02
2022-11-17T10:32:31.578Z,13.93
2022-11-17T10:35:19.865Z,14.05
2022-11-17T10:38:14.606Z,14.11
2022-11-17T10:40:42.932Z,13.92
2022-11-17T10:43:14.216Z,13.96
2022-11-17T10:45:57.313Z,14.53
2022-11-17T10:48:31.326Z,14.88
2022-11-17T10:51:00.624Z,15.19
2022-11-17T10:53:32.220Z,15.59
2022-11-17T10:56:05.014Z,15.85
2022-11-17T10:58:59.331Z,15.90
2022-11-17T11:01:39.185Z,16.01
2022-11-17T11:04:34.745Z,16.11
2022-11-17T11:07:06.999Z,16.35
2022-11-17T11:09:42.304Z,16.82
2022-11-17T11:12:16.461Z,17.29
2022-11-17T11:15:09.499Z,16.88
2022-11-17T11:17:37.626Z,17.09
2022-11-17T11:20:18.494Z,16.96
2022-11-17T11:22:59.441Z,16.50
2022-11-17T11:25:41.946Z,15.93
2022-11-17T11:28:28.494Z,16.03
2022-11-17T11:31:25.675Z,16.25
2022-11-17T11:34:10.643Z,16.44
2022-11-17T11:37:01.437Z,16.40
2022-11-17T11:39:59.304Z,16.76
2022-11-17T11:43:20.675Z,16.95
2022-11-17T11:46:17.894Z,16.90
2022-11-17T11:48:48.264Z,16.55
2022-11-17T11:51:25.363Z,17.18
2022-11-17T11:54:04.417Z,17.76
2022-11-17T11:56:36.766Z,17.09
2022-11-17T11:59:48.508Z,17.49
2022-11-17T12:02:38.485Z,17.92
2022-11-17T12:05:44.115Z,18.23
2022-11-17T12:08:41.228Z,18.22
2022-11-17T12:11:33.354Z,18.02
2022-11-17T12:14:05.383Z,19.21
2022-11-17T12:16:37.936Z,18.54
2022-11-17T12:19:46.073Z,17.56
2022-11-17T12:22:22.715Z,17.75
2022-11-17T12:24:58.504Z,17.70
2022-11-17T12:27:35.328Z,16.79
2022-11-17T12:30:25.934Z,17.89
2022-11-17T12:32:55.534Z,17.98
2022-11-17T12:35:28.803Z,17.67
2022-11-17T12:38:15.443Z,17.37
2022-11-17T12:40:47.914Z,17.51
2022-11-17T12:43:15.865Z,17.75
2022-11-17T12:46:00.267Z,17.31
2022-11-17T12:48:35.740Z,17.25
2022-11-17T12:51:26.885Z,16.90
2022-11-17T12:54:38.333Z,17.05
2022-11-17T12:57:25.336Z,16.59
2022-11-17T13:00:10.944Z,17.18
2022-11-17T13:03:28.503Z,17.40
2022-11-17T13:06:34.810Z,17.98
2022-11-17T13:09:12.296Z,17.29
2022-11-17T13:11:40.174Z,16.73
2022-11-17T13:14:10.475Z,17.37
2022-11-17T13:16:46.604Z,17.03
2022-11-17T13:19:31.455Z,17.93
2022-11-17T13:22:02.594Z,18.04
2022-11-17T13:24:33.829Z,18.07
2022-11-17T13:27:07.703Z,17.49
2022-11-17T13:29:36.073Z,17.41
2022-11-17T13:32:23.829Z,17.73
2022-11-17T13:34:57.964Z,17.36
2022-11-17T13:37:28.553Z,17.32
2022-11-17T13:40:15.486Z,17.04
2022-11-17T13:42:44.233Z,16.90
2022-11-17T13:45:15.847Z,16.86
2022-11-17T13:47:49.683Z,17.07
2022-11-17T13:50:34.585Z,16.73
2022-11-17T13:53:05.615Z,16.44
2022-11-17T13:55:34.964Z,16.56
2022-11-17T13:58:07.074Z,16.93
2022-11-17T14:00:35.484Z,16.86
2022-11-17T14:03:07.222Z,17.06
2022-11-17T14:05:35.544Z,17.23
2022-11-17T14:08:23.794Z,17.44
2022-11-17T14:11:10.456Z,20.47
2022-11-17T14:14:12.302Z,23.55
2022-11-17T14:16:42.264Z,22.67
2022-11-17T14:19:16.265Z,20.26
2022-11-17T14:22:13.253Z,19.13
2022-11-17T14:24:45.945Z,18.40
2022-11-17T14:27:27.205Z,17.31
2022-11-17T14:29:55.424Z,16.86
2022-11-17T14:32:23.732Z,16.42
2022-11-17T14:34:51.734Z,16.19
2022-11-17T14:37:20.158Z,16.45
2022-11-17T14:39:48.233Z,16.63
2022-11-17T14:42:16.593Z,16.73
2022-11-17T14:44:44.603Z,16.74
2022-11-17T14:47:12.956Z,16.71
2022-11-17T14:49:40.883Z,16.18
2022-11-17T14:52:09.703Z,16.01
2022-11-17T14:54:37.573Z,15.80
2022-11-17T14:57:05.846Z,15.95
2022-11-17T14:59:35.413Z,16.18
2022-11-17T15:02:04.454Z,16.13
2022-11-17T15:04:50.060Z,15.75
2022-11-17T15:07:19.702Z,15.91
2022-11-17T15:09:47.685Z,16.12
2022-11-17T15:12:17.417Z,15.92
2022-11-17T15:14:48.163Z,16.15
2022-11-17T15:17:17.061Z,16.18
2022-11-17T15:19:45.872Z,16.19
2022-11-17T15:22:14.704Z,16.00
2022-11-17T15:24:42.683Z,16.00
2022-11-17T15:27:12.573Z,15.99
2022-11-17T15:29:41.196Z,16.19
2022-11-17T15:32:10.873Z,16.09
2022-11-17T15:34:38.819Z,16.15
2022-11-17T15:37:07.655Z,16.07
2022-11-17T15:39:36.359Z,15.97
2022-11-17T15:42:04.658Z,15.98
2022-11-17T15:44:32.552Z,16.03
2022-11-17T15:47:00.844Z,16.09
2022-11-17T15:49:28.774Z,15.92
2022-11-17T15:51:57.074Z,15.96
2022-11-17T15:54:25.119Z,15.96
2022-11-17T15:56:55.737Z,15.93
2022-11-17T15:59:23.763Z,15.91
2022-11-17T16:01:51.943Z,15.88
2022-11-17T16:04:19.932Z,15.75
2022-11-17T16:06:48.236Z,15.88
2022-11-17T16:09:17.306Z,16.04
2022-11-17T16:11:46.078Z,15.68
2022-11-17T16:14:15.337Z,15.83
2022-11-17T16:16:46.206Z,15.95
2022-11-17T16:19:14.728Z,15.71
2022-11-17T16:21:44.735Z,15.90
2022-11-17T16:24:12.848Z,15.83
2022-11-17T16:26:41.251Z,15.87
2022-11-17T16:29:09.490Z,15.80
2022-11-17T16:31:39.167Z,15.93
2022-11-17T16:34:13.314Z,15.78
2022-11-17T16:36:43.854Z,15.73
2022-11-17T16:39:17.311Z,15.69
2022-11-17T16:41:46.526Z,15.74
2022-11-17T16:44:17.285Z,15.75
2022-11-17T16:46:48.172Z,15.64
2022-11-17T16:49:18.165Z,15.80
2022-11-17T16:51:51.838Z,15.73
2022-11-17T16:54:21.854Z,15.83
2022-11-17T16:56:51.278Z,15.77
2022-11-17T16:59:19.830Z,15.95
2022-11-17T17:01:49.472Z,15.81
2022-11-17T17:04:17.637Z,15.84
2022-11-17T17:06:46.973Z,15.80
2022-11-17T17:09:15.907Z,15.55
2022-11-17T17:11:44.442Z,15.82
2022-11-17T17:14:14.596Z,15.74
2022-11-17T17:16:43.198Z,15.92
2022-11-17T17:19:13.622Z,15.75
2022-11-17T17:21:43.706Z,15.83
2022-11-17T17:24:12.406Z,15.76
2022-11-17T17:26:41.326Z,15.79
2022-11-17T17:29:12.025Z,15.92
2022-11-17T17:31:43.008Z,15.90
2022-11-17T17:34:13.038Z,15.92
2022-11-17T17:36:41.413Z,15.91
2022-11-17T17:39:16.224Z,15.80
2022-11-17T17:41:46.046Z,15.91
2022-11-17T17:44:19.237Z,15.84
2022-11-17T17:46:48.633Z,16.00
2022-11-17T17:49:19.112Z,15.88
2022-11-17T17:51:48.308Z,15.90
2022-11-17T17:54:19.016Z,15.80
2022-11-17T17:56:48.418Z,15.67
2022-11-17T17:59:17.021Z,15.71
2022-11-17T18:01:47.815Z,15.90
2022-11-17T18:04:16.846Z,15.73
2022-11-17T18:06:49.177Z,15.82
2022-11-17T18:09:20.731Z,15.83
2022-11-17T18:11:51.209Z,15.94
2022-11-17T18:14:25.149Z,15.94
2022-11-17T18:16:54.422Z,15.99
2022-11-17T18:19:26.932Z,15.80
2022-11-17T18:21:59.244Z,15.78
2022-11-17T18:24:27.183Z,15.82
2022-11-17T18:26:55.403Z,15.66
2022-11-17T18:29:23.526Z,15.66
2022-11-17T18:31:51.996Z,15.74
2022-11-17T18:34:22.273Z,15.58
2022-11-17T18:36:52.636Z,15.61
2022-11-17T18:39:21.542Z,15.72
2022-11-17T18:41:50.021Z,15.62
2022-11-17T18:44:21.712Z,15.61
2022-11-17T18:46:50.163Z,15.44
2022-11-17T18:49:18.593Z,15.60
2022-11-17T18:51:47.648Z,15.52
2022-11-17T18:54:15.935Z,15.52
2022-11-17T18:56:44.851Z,15.55
2022-11-17T18:59:13.245Z,15.47
2022-11-17T19:01:43.306Z,15.46
2022-11-17T19:04:15.291Z,15.66
2022-11-17T19:06:43.748Z,15.67
2022-11-17T19:09:11.889Z,15.54
2022-11-17T19:11:40.300Z,15.56
2022-11-17T19:14:08.356Z,15.51
2022-11-17T19:16:44.608Z,15.59
2022-11-17T19:19:14.468Z,15.46
2022-11-17T19:21:43.409Z,15.58
2022-11-17T19:24:11.740Z,15.74
2022-11-17T19:26:43.003Z,15.63
2022-11-17T19:29:16.633Z,15.54
2022-11-17T19:31:47.061Z,15.40
2022-11-17T19:34:16.267Z,15.49
2022-11-17T19:36:45.809Z,15.51
2022-11-17T19:39:14.876Z,15.42
2022-11-17T19:41:45.463Z,15.54
2022-11-17T19:44:13.620Z,15.41
2022-11-17T19:46:43.513Z,15.68
2022-11-17T19:49:11.995Z,15.51
2022-11-17T19:51:41.530Z,15.45
2022-11-17T19:54:11.977Z,15.42
2022-11-17T19:56:40.425Z,15.46
2022-11-17T19:59:13.995Z,15.51
2022-11-17T20:01:45.432Z,15.61
2022-11-17T20:04:13.758Z,15.49
2022-11-17T20:06:42.661Z,15.58
2022-11-17T20:09:13.914Z,15.49
2022-11-17T20:11:43.163Z,15.46
2022-11-17T20:14:11.389Z,15.52
2022-11-17T20:16:39.966Z,15.57
2022-11-17T20:19:09.251Z,15.45
2022-11-17T20:21:37.865Z,15.59
2022-11-17T20:24:06.269Z,15.45
2022-11-17T20:26:36.179Z,15.54
2022-11-17T20:29:04.484Z,15.70
2022-11-17T20:31:35.547Z,15.39
2022-11-17T20:34:05.882Z,15.43
2022-11-17T20:36:35.888Z,15.31
2022-11-17T20:39:06.779Z,15.17
2022-11-17T20:41:35.347Z,15.29
2022-11-17T20:44:04.538Z,15.34
2022-11-17T20:46:34.718Z,15.61
2022-11-17T20:49:02.898Z,15.39
2022-11-17T20:51:32.465Z,15.49
2022-11-17T20:54:00.680Z,15.41
2022-11-17T20:56:29.177Z,15.41
2022-11-17T20:58:57.338Z,15.54
2022-11-17T21:01:26.241Z,15.39
2022-11-17T21:03:54.451Z,15.07
2022-11-17T21:06:25.689Z,15.11
2022-11-17T21:08:53.921Z,15.13
2022-11-17T21:11:44.009Z,15.04
2022-11-17T21:14:13.497Z,15.17
2022-11-17T21:16:46.942Z,15.29
2022-11-17T21:19:16.258Z,15.32
2022-11-17T21:21:45.369Z,15.11
2022-11-17T21:24:13.748Z,15.24
2022-11-17T21:26:42.258Z,15.24
2022-11-17T21:29:10.367Z,15.33
2022-11-17T21:31:38.987Z,15.14
2022-11-17T21:34:07.752Z,15.13
2022-11-17T21:36:36.480Z,15.21
2022-11-17T21:39:06.387Z,15.18
2022-11-17T21:41:38.899Z,15.11
2022-11-17T21:44:07.156Z,15.07
2022-11-17T21:46:36.966Z,15.09
2022-11-17T21:49:05.280Z,15.19
2022-11-17T21:51:38.745Z,15.19
2022-11-17T21:54:09.238Z,15.18
2022-11-17T21:56:38.052Z,15.15
2022-11-17T21:59:10.609Z,15.13
2022-11-17T22:01:40.752Z,15.40
2022-11-17T22:04:11.141Z,15.30
2022-11-17T22:06:40.807Z,15.24
2022-11-17T22:09:10.220Z,15.20
2022-11-17T22:11:39.252Z,15.26
2022-11-17T22:14:09.239Z,15.18
2022-11-17T22:16:40.910Z,15.11
2022-11-17T22:19:09.675Z,15.15
2022-11-17T22:21:39.837Z,15.08
2022-11-17T22:24:10.797Z,14.97
2022-11-17T22:26:44.068Z,15.19
2022-11-17T22:29:20.149Z,14.92
2022-11-17T22:31:49.826Z,14.99
2022-11-17T22:34:18.835Z,15.02
2022-11-17T22:36:47.204Z,15.06
2022-11-17T22:39:17.062Z,15.09
2022-11-17T22:41:45.602Z,15.03
2022-11-17T22:44:15.683Z,14.90
2022-11-17T22:46:44.234Z,14.73
2022-11-17T22:49:13.696Z,14.99
2022-11-17T22:52:01.446Z,14.96
2022-11-17T22:54:30.623Z,14.98
2022-11-17T22:57:00.084Z,14.82
2022-11-17T22:59:30.060Z,15.07
2022-11-17T23:01:58.281Z,15.02
2022-11-17T23:04:26.322Z,14.92
2022-11-17T23:06:55.193Z,14.98
2022-11-17T23:09:23.343Z,14.99
2022-11-17T23:11:51.674Z,14.87
2022-11-17T23:14:20.242Z,15.03
2022-11-17T23:16:48.633Z,15.11
2022-11-17T23:19:16.842Z,15.03
2022-11-17T23:21:46.723Z,14.75
2022-11-17T23:24:14.994Z,15.03
2022-11-17T23:26:43.263Z,15.01
2022-11-17T23:29:11.338Z,14.97
2022-11-17T23:31:39.903Z,14.98
2022-11-17T23:34:11.134Z,14.90
2022-11-17T23:36:39.626Z,15.00
2022-11-17T23:39:07.694Z,15.02
2022-11-17T23:41:35.958Z,15.04
2022-11-17T23:44:04.049Z,15.11
2022-11-17T23:46:32.347Z,15.04
2022-11-17T23:49:00.327Z,15.07
2022-11-17T23:51:30.961Z,14.99
2022-11-17T23:54:01.114Z,14.84
2022-11-17T23:56:33.809Z,14.41
2022-11-17T23:59:01.832Z,14.81
